Time;durP1;ratioP1;P1;durP2;ratioP2;P2;SDS_P1;SDS_P2;PMS_P1;PMS_P2;Temp;Humidity;BMP_temperature;BMP_pressure;BME280_temperature;BME280_humidity;BME280_pressure;Samples;Min_cycle;Max_cycle;Signal;HPM_P1;HPM_P2
2023/03/07 00:01:21;;;;;;;5.60;3.35;;;;;;;3.46;100.00;99854.47;5013157;28;20022;-81
2023/03/07 00:03:46;;;;;;;3.63;2.58;;;;;;;3.42;100.00;99852.78;5013197;28;20037;-81
2023/03/07 00:06:12;;;;;;;3.33;2.65;;;;;;;3.41;100.00;99840.81;5013425;28;20034;-81
2023/03/07 00:08:37;;;;;;;3.60;2.65;;;;;;;3.42;100.00;99849.38;5012504;28;20022;-81
2023/03/07 00:11:07;;;;;;;3.53;2.55;;;;;;;3.39;100.00;99851.06;5013208;28;20066;-81
2023/03/07 00:13:34;;;;;;;3.55;2.60;;;;;;;3.37;100.00;99850.22;5012798;28;20467;-81
2023/03/07 00:16:04;;;;;;;;;;;;;;;3.34;100.00;99854.50;5018411;28;20035;-81
2023/03/07 00:18:30;;;;;;;3.60;2.70;;;;;;;3.33;100.00;99852.78;5032833;28;19921;-81
2023/03/07 00:20:57;;;;;;;3.15;2.50;;;;;;;3.28;100.00;99850.25;5032779;28;20104;-81
2023/03/07 00:23:23;;;;;;;3.42;2.60;;;;;;;3.26;100.00;99845.97;5032283;28;20026;-81
2023/03/07 00:25:56;;;;;;;3.50;2.47;;;;;;;3.24;100.00;99838.25;5032516;28;20032;-81
2023/03/07 00:28:22;;;;;;;3.45;2.33;;;;;;;3.19;100.00;99835.72;5032875;28;20036;-81
2023/03/07 00:30:50;;;;;;;2.15;1.95;;;;;;;3.17;100.00;99831.44;5031878;28;20108;-81
2023/03/07 00:33:15;;;;;;;2.60;2.03;;;;;;;3.12;100.00;99825.47;5032771;28;20021;-81
2023/03/07 00:35:40;;;;;;;2.80;1.85;;;;;;;3.10;100.00;99830.59;5032954;28;20029;-81
2023/03/07 00:38:06;;;;;;;1.80;1.70;;;;;;;3.05;100.00;99832.28;5031700;28;20037;-81
2023/03/07 00:40:31;;;;;;;2.10;1.70;;;;;;;3.00;100.00;99819.47;5032564;28;20025;-81
2023/03/07 00:42:56;;;;;;;2.03;1.80;;;;;;;2.97;100.00;99822.06;5032603;28;20029;-81
2023/03/07 00:45:22;;;;;;;1.58;1.45;;;;;;;2.96;100.00;99824.63;5013013;28;20057;-81
2023/03/07 00:47:47;;;;;;;1.65;1.55;;;;;;;2.90;100.00;99813.53;5012446;28;20128;-81
2023/03/07 00:50:12;;;;;;;1.38;1.35;;;;;;;2.91;100.00;99817.81;5014458;28;20026;-81
2023/03/07 00:52:40;;;;;;;1.52;1.40;;;;;;;2.95;100.00;99823.78;5015587;28;20033;-81
2023/03/07 00:55:06;;;;;;;1.40;1.30;;;;;;;2.94;100.00;99828.03;5016874;28;20025;-82
2023/03/07 00:57:32;;;;;;;1.60;1.50;;;;;;;2.99;100.00;99820.34;5016242;28;20033;-81
2023/03/07 00:59:57;;;;;;;1.42;1.33;;;;;;;2.94;100.00;99816.94;5015788;28;20026;-81
2023/03/07 01:02:22;;;;;;;1.60;1.50;;;;;;;2.94;100.00;99819.50;5016421;28;20034;-81
2023/03/07 01:04:48;;;;;;;1.52;1.42;;;;;;;2.91;100.00;99817.81;5015743;28;20033;-81
2023/03/07 01:07:16;;;;;;;0.90;0.90;;;;;;;2.93;100.00;99807.53;5016476;28;20033;-81
2023/03/07 01:09:41;;;;;;;1.50;1.40;;;;;;;2.89;100.00;99811.81;5016654;28;20072;-81
2023/03/07 01:12:07;;;;;;;1.35;1.25;;;;;;;2.93;100.00;99812.66;5015460;28;20394;-82
2023/03/07 01:14:32;;;;;;;1.98;1.50;;;;;;;2.99;100.00;99814.38;5027622;28;20532;-82
2023/03/07 01:17:00;;;;;;;2.13;1.60;;;;;;;2.95;100.00;99810.97;5035493;28;20021;-81
2023/03/07 01:19:25;;;;;;;2.15;1.75;;;;;;;2.98;100.00;99808.41;5035848;28;20032;-82
2023/03/07 01:21:51;;;;;;;1.50;1.40;;;;;;;3.00;100.00;99803.25;5036137;28;20109;-81
2023/03/07 01:24:16;;;;;;;3.03;1.80;;;;;;;2.99;100.00;99804.13;5036122;28;20394;-82
2023/03/07 01:26:42;;;;;;;2.75;1.88;;;;;;;3.04;100.00;99805.81;5035482;28;20025;-82
2023/03/07 01:29:09;;;;;;;3.42;2.40;;;;;;;3.06;100.00;99798.13;5035834;28;20382;-82
2023/03/07 01:31:35;;;;;;;;;;;;;;;3.07;100.00;99798.13;5036220;28;20401;-81
2023/03/07 01:34:01;;;;;;;3.47;2.40;;;;;;;2.98;100.00;99790.47;5035204;28;19913;-82
2023/03/07 01:36:31;;;;;;;2.85;2.25;;;;;;;3.05;100.00;99791.28;5035980;28;20025;-82
2023/03/07 01:39:01;;;;;;;2.75;2.22;;;;;;;3.00;100.00;99783.59;5035710;28;20398;-82
2023/03/07 01:41:30;;;;;;;2.50;2.10;;;;;;;3.05;100.00;99788.72;5031063;28;20018;-82
2023/03/07 01:44:01;;;;;;;4.07;2.50;;;;;;;3.08;100.00;99778.47;5015385;28;20052;-82
2023/03/07 01:46:36;;;;;;;3.17;2.50;;;;;;;3.06;100.00;99775.03;5015757;28;20052;-82
2023/03/07 01:49:14;;;;;;;3.08;2.33;;;;;;;3.11;100.00;99780.16;5014770;28;20036;-82
2023/03/07 01:51:48;;;;;;;2.10;1.90;;;;;;;3.11;100.00;99775.03;5015655;28;20037;-82
2023/03/07 01:54:16;;;;;;;2.72;2.33;;;;;;;3.13;100.00;99776.75;5014530;28;20398;-82
2023/03/07 01:56:43;;;;;;;3.33;2.45;;;;;;;3.19;100.00;99769.03;5015602;28;20161;-82
2023/03/07 01:59:08;;;;;;;3.83;2.70;;;;;;;3.16;100.00;99771.59;5015627;28;20026;-82
2023/03/07 02:01:35;;;;;;;3.67;2.63;;;;;;;3.21;100.00;99766.47;5014400;28;20014;-82
2023/03/07 02:04:18;;;;;;;4.47;2.70;;;;;;;3.16;100.00;99757.94;5015410;28;20390;-81
2023/03/07 02:06:43;;;;;;;3.83;2.80;;;;;;;3.21;100.00;99761.34;5015531;28;20487;-82
2023/03/07 02:09:14;;;;;;;4.07;2.60;;;;;;;3.18;100.00;99762.19;5014444;28;20030;-82
2023/03/07 02:11:42;;;;;;;4.47;2.80;;;;;;;3.20;100.00;99763.06;5015405;28;20037;-81
2023/03/07 02:14:07;;;;;;;4.50;3.20;;;;;;;3.18;100.00;99753.66;5015267;28;20029;-81
2023/03/07 02:16:35;;;;;;;5.18;3.47;;;;;;;3.17;100.00;99749.41;5014527;28;20022;-81
2023/03/07 02:19:01;;;;;;;4.63;3.15;;;;;;;3.19;100.00;99753.66;5014837;28;20046;-81
2023/03/07 02:21:35;;;;;;;5.85;3.10;;;;;;;3.20;100.00;99754.53;5015119;28;20072;-82
2023/03/07 02:24:26;;;;;;;5.55;3.50;;;;;;;3.19;100.00;99751.09;5014137;28;20041;-81
2023/03/07 02:26:52;;;;;;;6.35;3.60;;;;;;;3.17;100.00;99747.66;5015035;28;20026;-81
2023/03/07 02:29:18;;;;;;;6.72;3.92;;;;;;;3.17;100.00;99745.09;5014753;28;20489;-81
2023/03/07 02:31:46;;;;;;;7.57;3.77;;;;;;;3.15;100.00;99740.84;5014986;28;20394;-81
2023/03/07 02:34:23;;;;;;;6.10;3.70;;;;;;;3.16;100.00;99742.56;5015218;28;20019;-81
2023/03/07 02:36:53;;;;;;;6.18;3.72;;;;;;;3.14;100.00;99732.31;5015052;28;20032;-81
2023/03/07 02:39:20;;;;;;;5.13;3.40;;;;;;;3.17;100.00;99734.84;5033276;28;20041;-81
2023/03/07 02:41:47;;;;;;;4.78;3.30;;;;;;;3.14;100.00;99727.19;5034486;28;20029;-82
2023/03/07 02:44:15;;;;;;;5.00;3.22;;;;;;;3.14;100.00;99726.31;5183903;23;20449;-82
2023/03/07 02:46:40;;;;;;;4.88;3.00;;;;;;;3.15;100.00;99728.91;5014832;28;20026;-82
2023/03/07 02:49:06;;;;;;;5.10;3.10;;;;;;;3.16;100.00;99730.56;5014233;28;20026;-81
2023/03/07 02:51:31;;;;;;;4.95;3.13;;;;;;;3.14;100.00;99723.75;5013750;28;20029;-81
2023/03/07 02:53:56;;;;;;;4.18;2.90;;;;;;;3.15;100.00;99725.47;5014349;28;20474;-82
2023/03/07 02:56:22;;;;;;;3.92;2.83;;;;;;;3.14;100.00;99726.31;5014084;28;20418;-81
2023/03/07 02:58:50;;;;;;;4.82;3.03;;;;;;;3.09;100.00;99719.50;5010727;28;20034;-82
2023/03/07 03:01:15;;;;;;;3.28;2.65;;;;;;;3.12;100.00;99725.47;4994833;28;20026;-82
2023/03/07 03:03:40;;;;;;;3.67;2.78;;;;;;;3.09;100.00;99721.22;4994906;28;20034;-82
2023/03/07 03:06:06;;;;;;;3.80;2.65;;;;;;;3.11;100.00;99724.63;5006920;28;20026;-82
2023/03/07 03:08:31;;;;;;;4.43;2.60;;;;;;;3.13;100.00;99716.91;5014569;28;20386;-82
2023/03/07 03:10:56;;;;;;;5.80;3.00;;;;;;;3.09;100.00;99718.66;5014249;28;20356;-82
2023/03/07 03:13:22;;;;;;;4.03;2.90;;;;;;;3.05;100.00;99707.56;5148529;23;20108;-81
2023/03/07 03:15:47;;;;;;;3.60;2.80;;;;;;;3.06;100.00;99716.09;5020925;22;20502;-82
2023/03/07 03:18:13;;;;;;;2.97;2.42;;;;;;;3.09;100.00;99721.22;5013858;28;20024;-81
2023/03/07 03:20:39;;;;;;;3.28;2.45;;;;;;;3.11;100.00;99718.63;5070123;22;20034;-82
2023/03/07 03:23:05;;;;;;;4.65;2.80;;;;;;;3.06;100.00;99709.25;5013728;28;20038;-82
2023/03/07 03:25:30;;;;;;;3.72;2.55;;;;;;;3.09;100.00;99716.09;5013510;28;20144;-82
2023/03/07 03:27:56;;;;;;;4.07;2.83;;;;;;;3.11;100.00;99713.50;5013525;28;20021;-82
2023/03/07 03:30:21;;;;;;;4.20;2.90;;;;;;;3.09;100.00;99710.97;5013826;28;20030;-82
2023/03/07 03:32:46;;;;;;;4.35;2.72;;;;;;;3.06;100.00;99708.41;5008460;28;20041;-82
2023/03/07 03:35:12;;;;;;;4.72;2.72;;;;;;;3.06;100.00;99716.94;4994138;28;20041;-82
2023/03/07 03:37:38;;;;;;;3.53;2.60;;;;;;;3.07;100.00;99708.41;4994532;28;20085;-82
2023/03/07 03:40:12;;;;;;;2.67;2.33;;;;;;;3.09;100.00;99714.38;4993265;28;20029;-82
2023/03/07 03:42:41;;;;;;;4.80;2.88;;;;;;;3.08;100.00;99709.25;4994247;28;20061;-82
2023/03/07 03:45:08;;;;;;;5.28;3.40;;;;;;;3.06;100.00;99700.69;4994071;28;20057;-81
2023/03/07 03:47:33;;;;;;;;;;;;;;;3.04;100.00;99694.75;4994002;28;20394;-81
2023/03/07 03:49:58;;;;;;;6.50;3.20;;;;;;;3.01;100.00;99695.59;4993546;28;19914;-81
2023/03/07 03:52:23;;;;;;;4.80;3.00;;;;;;;2.99;100.00;99689.59;4993958;28;20030;-82
2023/03/07 03:54:49;;;;;;;4.93;2.83;;;;;;;2.99;100.00;99686.22;4992887;28;20378;-82
2023/03/07 03:57:19;;;;;;;5.53;3.17;;;;;;;2.99;100.00;99683.66;4993871;28;20077;-82
2023/03/07 03:59:45;;;;;;;3.75;2.70;;;;;;;2.97;100.00;99680.22;4994024;28;20105;-82
2023/03/07 04:02:10;;;;;;;4.38;2.80;;;;;;;2.98;100.00;99674.25;5009847;28;20060;-82
2023/03/07 04:04:36;;;;;;;3.03;2.50;;;;;;;2.99;100.00;99673.38;5013380;28;20486;-82
2023/03/07 04:07:01;;;;;;;3.63;2.60;;;;;;;3.01;100.00;99674.25;5013338;28;20359;-82
2023/03/07 04:09:26;;;;;;;3.75;2.78;;;;;;;2.98;100.00;99657.19;5012638;28;20022;-82
2023/03/07 04:11:51;;;;;;;3.33;2.40;;;;;;;2.99;100.00;99658.84;5012889;28;20038;-82
2023/03/07 04:14:17;;;;;;;3.50;2.60;;;;;;;2.94;100.00;99648.63;5013916;28;20025;-82
2023/03/07 04:16:42;;;;;;;2.95;2.45;;;;;;;2.97;100.00;99654.59;5012890;28;20105;-82
2023/03/07 04:19:11;;;;;;;3.47;2.60;;;;;;;2.93;100.00;99649.47;5013018;28;20028;-83
2023/03/07 04:21:43;;;;;;;2.50;2.10;;;;;;;2.94;100.00;99646.06;5012181;28;20050;-82
2023/03/07 04:24:08;;;;;;;3.88;2.30;;;;;;;2.94;100.00;99634.97;5012997;28;20030;-82
2023/03/07 04:26:35;;;;;;;3.08;2.15;;;;;;;2.94;100.00;99645.22;5013093;28;20026;-82
2023/03/07 04:29:01;;;;;;;3.83;2.35;;;;;;;2.91;100.00;99638.41;5003002;28;20023;-82
2023/03/07 04:31:26;;;;;;;3.35;2.40;;;;;;;2.91;100.00;99629.84;4992952;28;20048;-82
2023/03/07 04:33:53;;;;;;;3.28;2.42;;;;;;;2.92;100.00;99632.41;4993197;28;20030;-82
2023/03/07 04:36:20;;;;;;;4.35;2.50;;;;;;;2.93;100.00;99628.97;4992659;28;20053;-83
2023/03/07 04:38:46;;;;;;;2.88;2.33;;;;;;;2.93;100.00;99626.41;4993291;28;20038;-82
2023/03/07 04:41:13;;;;;;;3.35;2.50;;;;;;;2.91;100.00;99630.72;4993621;28;20030;-83
2023/03/07 04:43:39;;;;;;;4.00;2.80;;;;;;;2.96;100.00;99633.25;4992856;28;20080;-82
2023/03/07 04:46:05;;;;;;;3.35;2.60;;;;;;;2.92;100.00;99631.53;4993127;28;20109;-82
2023/03/07 04:48:30;;;;;;;3.25;2.40;;;;;;;2.85;100.00;99609.38;4993365;28;20033;-83
2023/03/07 04:50:55;;;;;;;3.53;2.53;;;;;;;2.96;100.00;99622.13;4992264;28;20105;-82
2023/03/07 04:53:21;;;;;;;3.22;2.38;;;;;;;2.92;100.00;99627.28;4993334;28;20037;-82
2023/03/07 04:55:47;;;;;;;4.25;2.55;;;;;;;2.92;100.00;99627.28;4993058;28;20026;-82
2023/03/07 04:58:13;;;;;;;2.80;2.28;;;;;;;2.92;100.00;99624.72;5002625;28;20085;-82
2023/03/07 05:00:43;;;;;;;3.80;2.30;;;;;;;2.92;100.00;99617.03;4993583;28;20030;-82
2023/03/07 05:03:10;;;;;;;5.75;2.65;;;;;;;2.90;100.00;99611.06;4992855;28;20281;-82
2023/03/07 05:05:36;;;;;;;4.45;2.50;;;;;;;2.92;100.00;99611.91;4992276;28;20053;-82
2023/03/07 05:08:03;;;;;;;3.38;2.35;;;;;;;2.90;100.00;99617.88;4992645;28;20483;-82
2023/03/07 05:10:34;;;;;;;2.80;2.20;;;;;;;2.90;100.00;99615.31;4993460;28;20030;-82
2023/03/07 05:13:00;;;;;;;4.00;2.20;;;;;;;2.93;100.00;99612.75;4992031;28;20023;-82
2023/03/07 05:15:26;;;;;;;4.03;2.60;;;;;;;2.83;100.00;99596.53;4993212;28;20029;-83
2023/03/07 05:17:51;;;;;;;4.03;2.70;;;;;;;2.90;100.00;99608.50;4992227;28;20018;-82
2023/03/07 05:20:17;;;;;;;3.97;2.60;;;;;;;2.86;100.00;99604.22;4992675;28;20462;-82
2023/03/07 05:22:43;;;;;;;4.28;2.50;;;;;;;2.89;100.00;99611.91;4992973;28;20034;-82
2023/03/07 05:25:09;;;;;;;4.30;2.60;;;;;;;2.89;100.00;99609.34;5001185;23;20018;-82
2023/03/07 05:27:34;;;;;;;3.45;2.40;;;;;;;2.89;100.00;99601.66;5012370;28;20083;-83
2023/03/07 05:30:00;;;;;;;5.47;2.97;;;;;;;2.85;100.00;99597.41;5012260;28;20030;-82
2023/03/07 05:32:25;;;;;;;3.85;2.70;;;;;;;2.86;100.00;99599.09;5011461;28;20037;-82
2023/03/07 05:34:51;;;;;;;4.82;2.65;;;;;;;2.84;100.00;99595.69;5012280;28;20133;-82
2023/03/07 05:37:16;;;;;;;5.17;3.07;;;;;;;2.80;100.00;99591.47;5014043;28;20045;-82
2023/03/07 05:39:42;;;;;;;5.13;2.90;;;;;;;2.73;100.00;99579.50;5015682;28;20069;-82
2023/03/07 05:42:07;;;;;;;6.07;3.00;;;;;;;2.69;100.00;99580.38;5016166;28;20057;-82
2023/03/07 05:44:32;;;;;;;5.25;2.90;;;;;;;2.74;100.00;99594.88;5016215;28;20482;-82
2023/03/07 05:46:58;;;;;;;4.90;2.90;;;;;;;2.74;100.00;99599.16;5014986;28;20489;-82
2023/03/07 05:49:23;;;;;;;5.18;2.78;;;;;;;2.70;100.00;99600.88;5015953;28;20040;-82
2023/03/07 05:51:49;;;;;;;5.45;3.20;;;;;;;2.71;100.00;99596.59;5011162;28;20026;-82
2023/03/07 05:54:15;;;;;;;4.38;2.60;;;;;;;2.68;100.00;99591.50;4995341;28;20463;-82
2023/03/07 05:56:40;;;;;;;3.35;2.50;;;;;;;2.69;100.00;99590.63;4996324;28;20066;-82
2023/03/07 05:59:06;;;;;;;3.50;2.60;;;;;;;2.71;100.00;99587.22;4995669;28;20037;-82
2023/03/07 06:01:32;;;;;;;2.93;2.13;;;;;;;2.69;100.00;99582.94;4995476;28;20029;-82
2023/03/07 06:03:58;;;;;;;2.57;2.10;;;;;;;2.71;100.00;99583.78;5146538;23;20137;-82
2023/03/07 06:06:23;;;;;;;4.35;2.20;;;;;;;2.68;100.00;99582.09;5015471;28;20121;-82
2023/03/07 06:08:48;;;;;;;3.63;2.40;;;;;;;2.70;100.00;99590.63;5014682;28;20065;-81
2023/03/07 06:11:14;;;;;;;3.13;2.40;;;;;;;2.64;100.00;99582.97;5015234;28;20030;-82
2023/03/07 06:13:39;;;;;;;2.83;2.20;;;;;;;2.67;100.00;99595.75;5015392;28;20463;-82
2023/03/07 06:16:04;;;;;;;2.42;2.17;;;;;;;2.66;100.00;99596.59;5014098;28;20038;-82
2023/03/07 06:18:30;;;;;;;3.20;2.40;;;;;;;2.68;100.00;99596.63;5015234;28;20034;-82
2023/03/07 06:21:04;;;;;;;3.60;2.53;;;;;;;2.66;100.00;99593.19;4999993;28;20030;-82
2023/03/07 06:23:33;;;;;;;5.15;2.70;;;;;;;2.61;100.00;99588.09;4995427;28;20022;-82
2023/03/07 06:25:59;;;;;;;4.25;2.65;;;;;;;2.60;100.00;99594.91;4995618;28;20042;-82
2023/03/07 06:28:27;;;;;;;4.10;2.60;;;;;;;2.57;100.00;99600.06;4994363;28;20437;-81
2023/03/07 06:30:56;;;;;;;3.63;2.67;;;;;;;2.51;100.00;99602.63;4995095;28;20278;-82
2023/03/07 06:33:22;;;;;;;5.10;2.95;;;;;;;2.47;100.00;99608.63;4995552;28;20027;-83
2023/03/07 06:35:47;;;;;;;5.07;3.05;;;;;;;2.40;100.00;99618.03;4994741;28;20026;-82
2023/03/07 06:38:15;;;;;;;5.75;3.25;;;;;;;2.33;100.00;99607.78;4995379;28;20077;-83
2023/03/07 06:40:40;;;;;;;6.03;3.47;;;;;;;2.26;100.00;99602.66;4995238;28;20479;-82
2023/03/07 06:43:06;;;;;;;5.82;3.47;;;;;;;2.15;100.00;99607.81;4993488;28;20072;-82
2023/03/07 06:45:32;;;;;;;5.80;3.30;;;;;;;2.09;100.00;99601.84;4995264;28;20071;-83
2023/03/07 06:47:57;;;;;;;5.78;3.10;;;;;;;2.09;100.00;99605.25;4994826;28;20022;-83
2023/03/07 06:50:25;;;;;;;5.68;3.20;;;;;;;2.09;100.00;99606.97;4993873;28;20026;-83
2023/03/07 06:52:51;;;;;;;5.13;3.00;;;;;;;2.09;100.00;99599.28;4994004;28;20129;-82
2023/03/07 06:55:18;;;;;;;6.00;3.00;;;;;;;2.05;100.00;99598.44;4994810;28;20077;-83
2023/03/07 06:57:46;;;;;;;;;;;;;;;2.04;100.00;99608.66;4994853;28;20497;-83
2023/03/07 07:00:12;;;;;;;4.97;2.78;;;;;;;1.99;100.00;99603.53;4995115;28;19914;-83
2023/03/07 07:05:13;;;;;;;4.22;2.67;;;;;;;2.02;100.00;99613.78;4961450;26;20496;-84
2023/03/07 07:07:38;;;;;;;4.85;2.83;;;;;;;1.99;100.00;99612.09;4956667;28;20031;-84
2023/03/07 07:10:07;;;;;;;3.85;2.60;;;;;;;1.96;100.00;99617.19;4955545;29;20090;-83
2023/03/07 07:12:38;;;;;;;3.45;2.50;;;;;;;1.90;100.00;99616.34;4955168;29;20036;-84
2023/03/07 07:15:51;;;;;;;4.10;2.50;;;;;;;1.82;100.00;99598.41;4955776;29;20027;-83
2023/03/07 07:19:09;;;;;;;3.92;2.70;;;;;;;1.91;100.00;99623.16;4914555;29;20024;-83
2023/03/07 07:28:40;;;;;;;2.83;2.30;;;;;;;1.65;100.00;99595.84;4843665;29;20110;-83
2023/03/07 07:31:05;;;;;;;3.20;2.33;;;;;;;1.75;100.00;99623.13;4840519;29;20480;-83
2023/03/07 07:33:31;;;;;;;3.13;2.22;;;;;;;1.71;100.00;99626.56;4839772;29;20033;-83
2023/03/07 07:35:56;;;;;;;3.00;2.40;;;;;;;1.72;100.00;99628.28;4910599;28;20057;-83
2023/03/07 07:38:21;;;;;;;2.67;2.15;;;;;;;1.68;100.00;99622.31;4973940;28;20030;-83
2023/03/07 07:40:47;;;;;;;2.47;2.08;;;;;;;1.68;100.00;99635.09;4973422;28;20018;-82
2023/03/07 07:43:16;;;;;;;2.10;1.90;;;;;;;1.72;100.00;99645.31;4974681;28;20031;-83
2023/03/07 07:45:41;;;;;;;3.45;2.20;;;;;;;1.68;100.00;99662.34;4974038;28;20085;-83
2023/03/07 07:48:09;;;;;;;2.92;2.30;;;;;;;1.60;100.00;99654.66;4974454;28;20027;-83
2023/03/07 07:50:34;;;;;;;2.95;2.20;;;;;;;1.63;100.00;99664.06;4973709;28;20041;-83
2023/03/07 07:53:00;;;;;;;2.33;2.10;;;;;;;1.58;100.00;99666.59;4973597;28;20035;-83
2023/03/07 07:55:25;;;;;;;2.83;2.20;;;;;;;1.57;100.00;99674.28;4974623;28;20484;-83
2023/03/07 07:57:51;;;;;;;2.97;2.20;;;;;;;1.56;100.00;99670.88;4974384;28;20078;-83
2023/03/07 08:00:20;;;;;;;3.00;2.30;;;;;;;1.57;100.00;99674.28;4967371;28;20034;-83
2023/03/07 08:02:49;;;;;;;2.50;2.00;;;;;;;1.53;100.00;99675.97;4954662;29;20035;-83
2023/03/07 08:05:15;;;;;;;2.60;2.10;;;;;;;1.52;100.00;99666.59;4954836;29;20106;-83
2023/03/07 08:07:40;;;;;;;2.97;2.17;;;;;;;1.52;100.00;99664.03;4954589;29;20047;-83
2023/03/07 08:10:09;;;;;;;3.70;2.35;;;;;;;1.52;100.00;99671.69;4954926;29;20057;-84
2023/03/07 08:12:34;;;;;;;2.17;1.83;;;;;;;1.55;100.00;99679.38;4955210;29;20027;-84
2023/03/07 08:15:00;;;;;;;3.45;2.35;;;;;;;1.57;100.00;99671.72;4954033;29;20027;-83
2023/03/07 08:17:27;;;;;;;5.10;3.28;;;;;;;1.56;100.00;99677.66;4955027;29;20059;-83
2023/03/07 08:19:53;;;;;;;6.10;3.65;;;;;;;1.54;100.00;99672.56;4954614;29;20117;-83
2023/03/07 08:22:18;;;;;;;6.15;3.70;;;;;;;1.53;100.00;99676.81;4954434;29;20098;-84
2023/03/07 08:24:48;;;;;;;7.18;4.00;;;;;;;1.49;100.00;99677.66;4955086;29;20031;-84
2023/03/07 08:27:13;;;;;;;15.80;7.80;;;;;;;1.38;100.00;99682.72;4955011;29;20039;-84
2023/03/07 08:29:39;;;;;;;12.80;6.72;;;;;;;1.35;100.00;99697.22;4954157;28;20027;-83
2023/03/07 08:32:04;;;;;;;15.52;8.52;;;;;;;1.18;100.00;99689.47;4954323;29;20069;-83
2023/03/07 08:34:33;;;;;;;13.32;7.35;;;;;;;1.09;100.00;99708.16;4954652;29;20042;-83
2023/03/07 08:36:58;;;;;;;14.27;7.47;;;;;;;1.02;100.00;99678.31;4953603;29;20480;-84
2023/03/07 08:39:23;;;;;;;12.88;6.80;;;;;;;1.05;100.00;99693.69;4954951;29;20053;-83
2023/03/07 08:41:48;;;;;;;12.98;6.78;;;;;;;1.04;100.00;99697.91;4953791;29;20476;-83
2023/03/07 08:44:14;;;;;;;10.90;5.90;;;;;;;1.12;100.00;99692.84;4954463;29;20110;-83
2023/03/07 08:46:39;;;;;;;9.85;5.45;;;;;;;1.10;100.00;99689.44;4954642;29;20447;-83
2023/03/07 08:49:04;;;;;;;9.73;5.30;;;;;;;1.13;100.00;99683.47;4968747;28;20073;-83
2023/03/07 08:51:30;;;;;;;8.20;4.90;;;;;;;1.19;100.00;99694.59;4973025;28;20117;-83
2023/03/07 08:54:16;;;;;;;8.10;4.25;;;;;;;1.23;100.00;99691.19;4969894;28;20035;-83
2023/03/07 08:56:42;;;;;;;;;;;;;;;1.31;100.00;99692.91;4972433;22;20478;-84
2023/03/07 08:59:07;;;;;;;6.50;3.93;;;;;;;1.41;100.00;99691.25;4973475;28;19913;-83
2023/03/07 09:01:32;;;;;;;5.53;3.67;;;;;;;1.50;100.00;99693.84;4957532;28;20062;-84
2023/03/07 09:03:58;;;;;;;5.47;3.40;;;;;;;1.54;100.00;99686.19;5014756;23;20031;-84
2023/03/07 09:06:23;;;;;;;4.40;2.92;;;;;;;1.62;100.00;99699.00;5012152;28;20032;-84
2023/03/07 09:08:49;;;;;;;4.60;3.22;;;;;;;1.66;100.00;99679.41;5011038;23;20050;-84
2023/03/07 09:11:15;;;;;;;4.53;3.17;;;;;;;1.69;100.00;99697.31;4991495;28;20041;-84
2023/03/07 09:13:40;;;;;;;3.92;2.80;;;;;;;1.73;100.00;99672.59;4996672;28;20026;-84
2023/03/07 09:16:06;;;;;;;3.53;2.90;;;;;;;1.76;100.00;99690.53;4996560;28;20080;-84
2023/03/07 09:18:33;;;;;;;4.70;3.00;;;;;;;1.82;100.00;99691.38;4995737;28;20506;-84
2023/03/07 09:21:03;;;;;;;5.60;3.38;;;;;;;1.77;100.00;99692.22;4995295;28;20030;-84
2023/03/07 09:23:28;;;;;;;5.03;3.35;;;;;;;1.76;100.00;99687.97;4996271;28;20034;-84
2023/03/07 09:25:54;;;;;;;6.45;3.53;;;;;;;1.78;100.00;99697.34;4996771;28;20113;-85
2023/03/07 09:28:22;;;;;;;4.55;3.33;;;;;;;1.85;100.00;99706.75;4993861;28;20039;-84
2023/03/07 09:30:47;;;;;;;4.72;3.10;;;;;;;1.85;100.00;99705.88;4996581;28;20137;-84
2023/03/07 09:33:12;;;;;;;4.45;3.17;;;;;;;1.83;100.00;99710.13;4995576;28;20121;-85
2023/03/07 09:35:38;;;;;;;5.53;3.50;;;;;;;1.85;100.00;99717.00;4996648;28;20482;-85
2023/03/07 09:38:03;;;;;;;6.10;3.85;;;;;;;1.85;100.00;99708.44;4995585;28;20106;-84
2023/03/07 09:40:29;;;;;;;5.63;3.40;;;;;;;1.91;100.00;99718.72;4996556;28;20026;-85
2023/03/07 09:43:20;;;;;;;5.35;3.40;;;;;;;1.97;100.00;99707.63;4996292;28;20042;-84
2023/03/07 09:46:03;;;;;;;6.50;3.75;;;;;;;2.04;100.00;99705.91;4995903;28;20113;-84
2023/03/07 09:48:44;;;;;;;5.82;3.55;;;;;;;2.10;100.00;99711.88;4996760;28;20062;-85
2023/03/07 09:51:25;;;;;;;5.65;3.53;;;;;;;2.09;100.00;99712.72;4996206;28;20034;-84
2023/03/07 09:54:12;;;;;;;5.43;3.60;;;;;;;2.08;100.00;99710.19;4995292;28;20046;-84
2023/03/07 09:56:53;;;;;;;4.57;3.30;;;;;;;2.14;100.00;99707.63;4996484;28;20054;-84
2023/03/07 09:59:27;;;;;;;5.78;3.50;;;;;;;2.19;100.00;99710.22;4995532;28;20034;-84
2023/03/07 10:02:17;;;;;;;5.03;3.20;;;;;;;2.19;100.00;99707.66;4995835;28;20445;-85
2023/03/07 10:05:00;;;;;;;6.05;3.65;;;;;;;2.25;100.00;99708.47;4996452;28;20030;-84
2023/03/07 10:07:26;;;;;;;4.47;3.10;;;;;;;2.27;100.00;99706.78;4995221;28;20046;-84
2023/03/07 10:10:00;;;;;;;5.30;3.08;;;;;;;2.33;100.00;99711.06;4995620;28;20482;-84
2023/03/07 10:12:38;;;;;;;5.25;3.42;;;;;;;2.37;100.00;99699.09;4995824;28;20026;-84
2023/03/07 10:15:41;;;;;;;4.43;3.22;;;;;;;2.44;100.00;99704.22;4994832;28;20542;-84
2023/03/07 10:18:21;;;;;;;5.13;3.38;;;;;;;2.45;100.00;99710.22;4994659;28;20089;-84
2023/03/07 10:20:51;;;;;;;4.30;2.95;;;;;;;2.43;100.00;99701.66;5014367;28;20029;-84
2023/03/07 10:23:43;;;;;;;3.85;3.00;;;;;;;2.46;100.00;99711.91;5014899;28;20033;-84
2023/03/07 10:26:23;;;;;;;4.57;3.20;;;;;;;2.46;100.00;99712.75;5014913;28;20121;-84
2023/03/07 10:28:49;;;;;;;4.45;3.00;;;;;;;2.50;100.00;99705.09;5013971;28;20025;-84
2023/03/07 10:31:38;;;;;;;4.40;3.13;;;;;;;2.53;100.00;99705.09;5015114;28;20029;-84
2023/03/07 10:34:36;;;;;;;4.82;2.95;;;;;;;2.55;100.00;99711.91;4997755;28;20117;-84
2023/03/07 10:37:15;;;;;;;4.43;2.95;;;;;;;2.51;100.00;99701.66;4962701;28;20042;-84
2023/03/07 10:39:55;;;;;;;4.93;3.10;;;;;;;2.55;100.00;99709.34;4995704;28;20378;-84
2023/03/07 10:42:22;;;;;;;4.53;2.80;;;;;;;2.58;100.00;99706.78;4994735;28;20475;-84
2023/03/07 10:48:04;;;;;;;4.70;2.73;;;;;;;2.74;100.00;99709.31;4995617;28;20049;-84
2023/03/07 10:51:19;;;;;;;4.40;3.00;;;;;;;2.77;100.00;99710.16;4994729;28;20277;-84
2023/03/07 10:53:45;;;;;;;4.35;2.63;;;;;;;2.79;100.00;99712.75;5013299;28;20041;-84
2023/03/07 10:56:16;;;;;;;3.47;2.70;;;;;;;2.80;100.00;99701.63;5013132;28;20030;-84
2023/03/07 10:59:04;;;;;;;3.70;2.67;;;;;;;2.76;100.00;99695.63;5014806;28;20371;-85
2023/03/07 11:01:31;;;;;;;3.17;2.60;;;;;;;2.75;100.00;99696.53;5014841;28;20105;-85
2023/03/07 11:04:05;;;;;;;4.00;2.65;;;;;;;2.87;100.00;99716.13;5013475;28;20030;-85
2023/03/07 11:06:31;;;;;;;3.53;2.50;;;;;;;2.89;100.00;99718.69;5014320;28;20034;-85
2023/03/07 11:08:56;;;;;;;5.43;3.45;;;;;;;2.84;100.00;99705.88;5014140;28;20095;-84
2023/03/07 11:11:31;;;;;;;3.70;2.78;;;;;;;2.85;100.00;99706.75;5013457;28;20536;-85
2023/03/07 11:14:12;;;;;;;4.82;3.08;;;;;;;2.92;100.00;99708.44;5011305;28;20026;-84
2023/03/07 11:16:50;;;;;;;6.40;3.30;;;;;;;2.94;100.00;99710.13;5013230;28;20474;-84
2023/03/07 11:19:35;;;;;;;4.05;2.83;;;;;;;2.97;100.00;99713.56;5014200;28;20014;-84
2023/03/07 11:22:22;;;;;;;5.30;3.30;;;;;;;3.07;100.00;99712.66;5014212;28;20033;-84
2023/03/07 11:25:17;;;;;;;5.63;3.30;;;;;;;3.14;100.00;99716.06;5013332;28;20471;-84
2023/03/07 11:27:55;;;;;;;5.45;3.28;;;;;;;3.15;100.00;99710.09;5007429;28;20030;-84
2023/03/07 11:30:42;;;;;;;5.47;3.25;;;;;;;3.14;100.00;99711.81;5014278;28;20406;-84
2023/03/07 11:33:42;;;;;;;4.88;3.17;;;;;;;3.06;100.00;99704.13;5013755;28;20065;-84
2023/03/07 11:36:31;;;;;;;5.22;3.00;;;;;;;3.06;100.00;99693.00;5013247;28;20109;-84
2023/03/07 11:39:02;;;;;;;6.47;3.47;;;;;;;3.21;100.00;99713.47;5012940;28;20026;-84
2023/03/07 11:41:34;;;;;;;5.07;2.90;;;;;;;3.22;100.00;99717.75;5010766;28;20038;-84
2023/03/07 11:44:53;;;;;;;4.25;2.83;;;;;;;3.26;100.00;99716.03;5013086;28;20390;-84
2023/03/07 11:47:45;;;;;;;3.63;2.58;;;;;;;3.32;100.00;99703.16;4972893;28;20050;-85
2023/03/07 11:50:24;;;;;;;3.13;2.42;;;;;;;3.35;100.00;99699.75;4972738;28;20034;-85
2023/03/07 11:53:23;;;;;;;3.78;2.60;;;;;;;3.34;100.00;99698.91;5001470;28;20125;-84
2023/03/07 11:56:07;;;;;;;3.67;2.50;;;;;;;3.42;100.00;99696.31;5013188;28;20030;-85
2023/03/07 11:58:50;;;;;;;3.60;2.50;;;;;;;3.48;99.88;99705.69;5013615;28;20034;-84